Etusivu
METAR-TAF:

METAR-TAF

Lentoasemat :

Mora–Siljan

Mora, Ruotsi

Leveyspiiri: 60-57-31N, Pituuspiiri: 14-30-40E, korkeus merenpinnasta: 193 m

Tämänhetkinen sää

Tämä raportti tehtiin 29 minuuttia sitten, kello 13.20 UTC
Tuuli 10 kn etelästä, vaihdellen etelän/kaakon ja lounaan välillä
Lämpötila 17°C
Kosteus 72%
Ilmanpaine 1004 hPa
Näkyvyys 10 km tai enemmän

METAR: ESKM 191320Z AUTO 19010KT 150V220 9999 NCD 17/12 Q1004

Aika: 15:49 (13:49 UTC)


TAF: puuttuu

Säähavainnot ja -ennusteet yli 4000 lentoasemalta (METAR- ja TAF-raportit).

Käytössä olevat sääasemat on merkitty karttaan keltaisilla ja punaisilla pisteillä.

Aseta hiiri pisteen päälle nähdäksesi sääaseman nimen.

Klikkaa sitten nähdäksesi säähavainnot ja -ennusteet.

Kartan vaihtaminen: klikkaa mustalla rastilla varustettuja vihreitä pisteitä, niin voit zoomata sisään; viivalla varustettua vihreää pistettä, niin voit zoomata ulos tai vihreitä nuolia, niin pääset viereisille kartoille.


METAR-TAF: